sensor_id;sensor_type;location;lat;lon;timestamp;pressure;altitude;pressure_sealevel;temperature;humidity
77079;BME280;66004;55.096;38.760;2022-12-18T00:01:34;99423.94;;;-2.00;78.63
77079;BME280;66004;55.096;38.760;2022-12-18T00:04:02;99412.91;;;-2.00;78.67
77079;BME280;66004;55.096;38.760;2022-12-18T00:06:29;99399.66;;;-2.03;78.91
77079;BME280;66004;55.096;38.760;2022-12-18T00:08:57;99416.22;;;-1.98;78.86
77079;BME280;66004;55.096;38.760;2022-12-18T00:11:26;99431.38;;;-1.95;78.95
77079;BME280;66004;55.096;38.760;2022-12-18T00:13:54;99437.19;;;-1.91;78.79
77079;BME280;66004;55.096;38.760;2022-12-18T00:16:21;99415.09;;;-2.02;78.91
77079;BME280;66004;55.096;38.760;2022-12-18T00:18:50;99432.78;;;-1.87;78.69
77079;BME280;66004;55.096;38.760;2022-12-18T00:21:16;99421.75;;;-1.87;78.83
77079;BME280;66004;55.096;38.760;2022-12-18T00:23:43;99414.59;;;-1.88;78.77
77079;BME280;66004;55.096;38.760;2022-12-18T00:26:15;99409.06;;;-1.88;78.79
77079;BME280;66004;55.096;38.760;2022-12-18T00:28:41;99398.31;;;-1.85;78.70
77079;BME280;66004;55.096;38.760;2022-12-18T00:31:09;99385.91;;;-1.82;78.65
77079;BME280;66004;55.096;38.760;2022-12-18T00:33:36;99383.16;;;-1.77;78.62
77079;BME280;66004;55.096;38.760;2022-12-18T00:36:19;99364.97;;;-1.78;78.66
77079;BME280;66004;55.096;38.760;2022-12-18T00:38:45;99358.91;;;-1.75;78.48
77079;BME280;66004;55.096;38.760;2022-12-18T00:41:11;99360.25;;;-1.78;78.25
77079;BME280;66004;55.096;38.760;2022-12-18T00:43:38;99360.56;;;-1.84;78.22
77079;BME280;66004;55.096;38.760;2022-12-18T00:46:04;99368.25;;;-1.91;78.12
77079;BME280;66004;55.096;38.760;2022-12-18T00:48:30;99356.94;;;-1.95;78.07
77079;BME280;66004;55.096;38.760;2022-12-18T00:50:55;99358.06;;;-2.01;77.68
77079;BME280;66004;55.096;38.760;2022-12-18T00:53:21;99317.50;;;-2.21;77.85
77079;BME280;66004;55.096;38.760;2022-12-18T00:55:47;99317.25;;;-2.14;78.01
77079;BME280;66004;55.096;38.760;2022-12-18T00:58:14;99330.22;;;-2.05;77.84
77079;BME280;66004;55.096;38.760;2022-12-18T01:00:40;99320.28;;;-2.06;77.90
77079;BME280;66004;55.096;38.760;2022-12-18T01:03:05;99308.16;;;-2.10;77.51
77079;BME280;66004;55.096;38.760;2022-12-18T01:05:32;99305.38;;;-2.15;77.96
77079;BME280;66004;55.096;38.760;2022-12-18T01:07:58;99299.88;;;-2.15;77.83
77079;BME280;66004;55.096;38.760;2022-12-18T01:10:24;99288.31;;;-2.22;77.75
77079;BME280;66004;55.096;38.760;2022-12-18T01:12:50;99293.81;;;-2.22;77.53
77079;BME280;66004;55.096;38.760;2022-12-18T01:15:16;99290.25;;;-2.28;77.81
77079;BME280;66004;55.096;38.760;2022-12-18T01:17:42;99275.63;;;-2.33;77.49
77079;BME280;66004;55.096;38.760;2022-12-18T01:20:09;99278.94;;;-2.31;77.79
77079;BME280;66004;55.096;38.760;2022-12-18T01:22:36;99273.44;;;-2.31;77.94
77079;BME280;66004;55.096;38.760;2022-12-18T01:25:03;99265.72;;;-2.29;78.03
77079;BME280;66004;55.096;38.760;2022-12-18T01:27:29;99241.75;;;-2.39;77.73
77079;BME280;66004;55.096;38.760;2022-12-18T01:29:55;99263.22;;;-2.26;77.69
77079;BME280;66004;55.096;38.760;2022-12-18T01:32:21;99258.00;;;-2.27;77.62
77079;BME280;66004;55.096;38.760;2022-12-18T01:34:47;99256.31;;;-2.28;77.73
77079;BME280;66004;55.096;38.760;2022-12-18T01:37:13;99254.13;;;-2.31;77.40
77079;BME280;66004;55.096;38.760;2022-12-18T01:39:38;99237.88;;;-2.38;77.47
77079;BME280;66004;55.096;38.760;2022-12-18T01:42:11;99240.91;;;-2.29;77.61
77079;BME280;66004;55.096;38.760;2022-12-18T01:45:03;99245.03;;;-2.27;77.33
77079;BME280;66004;55.096;38.760;2022-12-18T01:52:33;99222.72;;;-2.36;77.11
77079;BME280;66004;55.096;38.760;2022-12-18T01:55:00;99219.97;;;-2.30;77.45
77079;BME280;66004;55.096;38.760;2022-12-18T01:57:26;99226.03;;;-2.28;77.24
77079;BME280;66004;55.096;38.760;2022-12-18T01:59:57;99221.34;;;-2.33;76.79
77079;BME280;66004;55.096;38.760;2022-12-18T02:02:26;99211.69;;;-2.36;77.08
77079;BME280;66004;55.096;38.760;2022-12-18T02:04:53;99211.16;;;-2.43;76.90
77079;BME280;66004;55.096;38.760;2022-12-18T02:10:56;99210.59;;;-2.40;76.76
77079;BME280;66004;55.096;38.760;2022-12-18T02:14:21;99212.81;;;-2.42;76.75
77079;BME280;66004;55.096;38.760;2022-12-18T02:16:39;99208.97;;;-2.41;76.51
77079;BME280;66004;55.096;38.760;2022-12-18T02:22:50;99200.69;;;-2.46;76.71
77079;BME280;66004;55.096;38.760;2022-12-18T02:28:09;99205.66;;;-2.48;76.73
77079;BME280;66004;55.096;38.760;2022-12-18T02:30:37;99202.88;;;-2.48;76.78
77079;BME280;66004;55.096;38.760;2022-12-18T02:33:06;99189.09;;;-2.53;76.59
77079;BME280;66004;55.096;38.760;2022-12-18T02:35:33;99197.94;;;-2.46;76.85
77079;BME280;66004;55.096;38.760;2022-12-18T02:38:00;99190.47;;;-2.45;76.56
77079;BME280;66004;55.096;38.760;2022-12-18T02:40:28;99187.44;;;-2.49;76.56
77079;BME280;66004;55.096;38.760;2022-12-18T02:42:54;99181.41;;;-2.46;76.72
77079;BME280;66004;55.096;38.760;2022-12-18T02:45:20;99188.84;;;-2.46;76.15
77079;BME280;66004;55.096;38.760;2022-12-18T02:47:48;99190.19;;;-2.49;75.83
77079;BME280;66004;55.096;38.760;2022-12-18T02:50:42;99192.13;;;-2.55;75.94
77079;BME280;66004;55.096;38.760;2022-12-18T02:53:22;99194.06;;;-2.60;75.84
77079;BME280;66004;55.096;38.760;2022-12-18T02:56:03;99188.03;;;-2.67;75.65
77079;BME280;66004;55.096;38.760;2022-12-18T02:59:13;99181.94;;;-2.75;75.72
77079;BME280;66004;55.096;38.760;2022-12-18T03:01:24;99192.94;;;-2.80;75.90
77079;BME280;66004;55.096;38.760;2022-12-18T03:04:10;99171.44;;;-2.98;76.00
77079;BME280;66004;55.096;38.760;2022-12-18T03:06:44;99183.00;;;-2.91;76.15
77079;BME280;66004;55.096;38.760;2022-12-18T03:09:27;99164.00;;;-3.03;76.10
77079;BME280;66004;55.096;38.760;2022-12-18T03:12:02;99183.53;;;-2.94;76.15
77079;BME280;66004;55.096;38.760;2022-12-18T03:14:52;99192.91;;;-2.95;76.30
77079;BME280;66004;55.096;38.760;2022-12-18T03:17:21;99191.25;;;-2.96;76.06
77079;BME280;66004;55.096;38.760;2022-12-18T03:19:49;99184.66;;;-3.00;76.20
77079;BME280;66004;55.096;38.760;2022-12-18T03:22:17;99184.91;;;-3.07;76.29
77079;BME280;66004;55.096;38.760;2022-12-18T03:24:43;99180.78;;;-3.09;76.29
77079;BME280;66004;55.096;38.760;2022-12-18T03:27:11;99182.97;;;-3.11;76.25
77079;BME280;66004;55.096;38.760;2022-12-18T03:32:11;99180.19;;;-3.17;76.54
77079;BME280;66004;55.096;38.760;2022-12-18T03:34:42;99192.28;;;-3.23;76.85
77079;BME280;66004;55.096;38.760;2022-12-18T03:37:09;99199.16;;;-3.25;76.81
77079;BME280;66004;55.096;38.760;2022-12-18T03:39:35;99207.69;;;-3.27;76.97
77079;BME280;66004;55.096;38.760;2022-12-18T03:44:32;99196.09;;;-3.34;76.95
77079;BME280;66004;55.096;38.760;2022-12-18T03:49:46;99195.53;;;-3.46;77.47
77079;BME280;66004;55.096;38.760;2022-12-18T03:52:33;99204.81;;;-3.53;77.14
77079;BME280;66004;55.096;38.760;2022-12-18T03:55:02;99195.44;;;-3.62;77.30
77079;BME280;66004;55.096;38.760;2022-12-18T03:57:31;99177.22;;;-3.73;77.37
77079;BME280;66004;55.096;38.760;2022-12-18T04:00:03;99193.16;;;-3.75;77.42
77079;BME280;66004;55.096;38.760;2022-12-18T04:02:31;99181.09;;;-3.74;77.75
77079;BME280;66004;55.096;38.760;2022-12-18T04:04:59;99188.78;;;-3.76;77.65
77079;BME280;66004;55.096;38.760;2022-12-18T04:07:27;99190.97;;;-3.78;77.53
77079;BME280;66004;55.096;38.760;2022-12-18T04:09:55;99192.03;;;-3.79;77.49
77079;BME280;66004;55.096;38.760;2022-12-18T04:12:28;99204.97;;;-3.80;77.27
77079;BME280;66004;55.096;38.760;2022-12-18T04:14:54;99208.50;;;-3.84;77.35
77079;BME280;66004;55.096;38.760;2022-12-18T04:17:20;99193.03;;;-4.01;77.41
77079;BME280;66004;55.096;38.760;2022-12-18T04:19:45;99212.34;;;-3.85;77.26
77079;BME280;66004;55.096;38.760;2022-12-18T04:22:11;99223.34;;;-3.85;77.15
77079;BME280;66004;55.096;38.760;2022-12-18T04:24:36;99218.38;;;-3.88;77.16
77079;BME280;66004;55.096;38.760;2022-12-18T04:27:03;99218.38;;;-3.88;77.11
77079;BME280;66004;55.096;38.760;2022-12-18T04:29:28;99238.16;;;-3.86;77.34
77079;BME280;66004;55.096;38.760;2022-12-18T04:31:54;99205.91;;;-4.06;77.25
77079;BME280;66004;55.096;38.760;2022-12-18T04:34:20;99226.06;;;-3.91;77.53
77079;BME280;66004;55.096;38.760;2022-12-18T04:36:46;99235.94;;;-3.95;77.10
77079;BME280;66004;55.096;38.760;2022-12-18T04:39:11;99230.44;;;-3.95;77.28
77079;BME280;66004;55.096;38.760;2022-12-18T04:41:37;99250.75;;;-3.96;76.98
77079;BME280;66004;55.096;38.760;2022-12-18T04:44:03;99200.00;;;-4.25;76.83
77079;BME280;66004;55.096;38.760;2022-12-18T04:46:29;99255.13;;;-4.00;76.92
77079;BME280;66004;55.096;38.760;2022-12-18T04:48:55;99268.28;;;-4.02;76.76
77079;BME280;66004;55.096;38.760;2022-12-18T04:51:20;99268.84;;;-4.05;76.87
77079;BME280;66004;55.096;38.760;2022-12-18T04:53:46;99238.47;;;-4.25;76.63
77079;BME280;66004;55.096;38.760;2022-12-18T04:56:14;99281.16;;;-4.07;77.03
77079;BME280;66004;55.096;38.760;2022-12-18T04:58:42;99300.66;;;-4.09;76.93
77079;BME280;66004;55.096;38.760;2022-12-18T05:01:08;99305.56;;;-4.16;76.59
77079;BME280;66004;55.096;38.760;2022-12-18T05:03:35;99320.63;;;-4.19;76.83
77079;BME280;66004;55.096;38.760;2022-12-18T05:06:01;99321.94;;;-4.26;77.04
77079;BME280;66004;55.096;38.760;2022-12-18T05:08:27;99326.91;;;-4.23;77.12
77079;BME280;66004;55.096;38.760;2022-12-18T05:11:14;99329.09;;;-4.25;77.10
77079;BME280;66004;55.096;38.760;2022-12-18T05:13:41;99334.53;;;-4.31;77.13
77079;BME280;66004;55.096;38.760;2022-12-18T05:16:07;99342.72;;;-4.36;77.24
77079;BME280;66004;55.096;38.760;2022-12-18T05:18:34;99350.94;;;-4.36;77.19
77079;BME280;66004;55.096;38.760;2022-12-18T05:20:59;99353.63;;;-4.41;77.19
77079;BME280;66004;55.096;38.760;2022-12-18T05:23:26;99357.97;;;-4.45;77.30
77079;BME280;66004;55.096;38.760;2022-12-18T05:25:56;99364.84;;;-4.47;77.42
77079;BME280;66004;55.096;38.760;2022-12-18T05:28:24;99366.19;;;-4.50;77.37
77079;BME280;66004;55.096;38.760;2022-12-18T05:30:51;99366.19;;;-4.50;77.50
77079;BME280;66004;55.096;38.760;2022-12-18T05:33:21;99381.25;;;-4.53;77.60
77079;BME280;66004;55.096;38.760;2022-12-18T05:35:55;99386.47;;;-4.51;77.55
77079;BME280;66004;55.096;38.760;2022-12-18T05:38:22;99366.19;;;-4.50;77.56
77079;BME280;66004;55.096;38.760;2022-12-18T05:40:48;99383.16;;;-4.53;77.57
77079;BME280;66004;55.096;38.760;2022-12-18T05:43:15;99378.72;;;-4.59;77.31
77079;BME280;66004;55.096;38.760;2022-12-18T05:45:41;99381.16;;;-4.58;77.33
77079;BME280;66004;55.096;38.760;2022-12-18T05:48:07;99367.09;;;-4.66;77.18
77079;BME280;66004;55.096;38.760;2022-12-18T05:50:37;99388.09;;;-4.55;77.10
77079;BME280;66004;55.096;38.760;2022-12-18T05:53:04;99387.75;;;-4.59;77.27
77079;BME280;66004;55.096;38.760;2022-12-18T05:55:33;99379.53;;;-4.59;77.10
77079;BME280;66004;55.096;38.760;2022-12-18T05:57:59;99393.00;;;-4.57;77.02
77079;BME280;66004;55.096;38.760;2022-12-18T06:00:25;99392.38;;;-4.64;77.29
77079;BME280;66004;55.096;38.760;2022-12-18T06:02:50;99404.38;;;-4.71;76.90
77079;BME280;66004;55.096;38.760;2022-12-18T06:05:17;99410.47;;;-4.63;76.84
77079;BME280;66004;55.096;38.760;2022-12-18T06:07:43;99404.97;;;-4.63;76.86
77079;BME280;66004;55.096;38.760;2022-12-18T06:10:09;99417.88;;;-4.64;76.59
77079;BME280;66004;55.096;38.760;2022-12-18T06:12:35;99417.53;;;-4.73;76.68
77079;BME280;66004;55.096;38.760;2022-12-18T06:15:00;99430.22;;;-4.66;76.48
77079;BME280;66004;55.096;38.760;2022-12-18T06:17:30;99438.47;;;-4.66;76.47
77079;BME280;66004;55.096;38.760;2022-12-18T06:19:56;99443.41;;;-4.63;76.28
77079;BME280;66004;55.096;38.760;2022-12-18T06:22:21;99456.56;;;-4.65;76.17
77079;BME280;66004;55.096;38.760;2022-12-18T06:24:47;99453.91;;;-4.60;76.39
77079;BME280;66004;55.096;38.760;2022-12-18T06:27:12;99463.22;;;-4.61;75.87
77079;BME280;66004;55.096;38.760;2022-12-18T06:29:38;99470.84;;;-4.63;76.17
77079;BME280;66004;55.096;38.760;2022-12-18T06:32:04;99470.84;;;-4.63;76.23
77079;BME280;66004;55.096;38.760;2022-12-18T06:34:29;99479.69;;;-4.61;76.06
77079;BME280;66004;55.096;38.760;2022-12-18T06:36:55;99485.19;;;-4.61;75.64
77079;BME280;66004;55.096;38.760;2022-12-18T06:39:21;99484.66;;;-4.58;75.69
77079;BME280;66004;55.096;38.760;2022-12-18T06:41:46;99499.81;;;-4.56;75.09
77079;BME280;66004;55.096;38.760;2022-12-18T06:44:12;99520.44;;;-4.53;75.38
77079;BME280;66004;55.096;38.760;2022-12-18T06:46:37;99524.25;;;-4.54;74.84
77079;BME280;66004;55.096;38.760;2022-12-18T06:49:03;99517.94;;;-4.55;74.69
77079;BME280;66004;55.096;38.760;2022-12-18T06:51:28;99520.09;;;-4.57;74.53
77079;BME280;66004;55.096;38.760;2022-12-18T06:53:54;99520.91;;;-4.56;74.12
77079;BME280;66004;55.096;38.760;2022-12-18T06:56:20;99536.81;;;-4.58;74.00
77079;BME280;66004;55.096;38.760;2022-12-18T06:58:45;99537.91;;;-4.59;74.14
77079;BME280;66004;55.096;38.760;2022-12-18T07:01:12;99537.72;;;-4.53;73.81
77079;BME280;66004;55.096;38.760;2022-12-18T07:03:38;99552.88;;;-4.50;73.68
77079;BME280;66004;55.096;38.760;2022-12-18T07:06:04;99554.28;;;-4.47;73.13
77079;BME280;66004;55.096;38.760;2022-12-18T07:08:30;99550.72;;;-4.48;73.33
77079;BME280;66004;55.096;38.760;2022-12-18T07:10:56;99525.25;;;-4.60;72.99
77079;BME280;66004;55.096;38.760;2022-12-18T07:13:22;99536.06;;;-4.54;73.04
77079;BME280;66004;55.096;38.760;2022-12-18T07:15:48;99558.38;;;-4.50;73.17
77079;BME280;66004;55.096;38.760;2022-12-18T07:18:13;99574.31;;;-4.47;72.63
77079;BME280;66004;55.096;38.760;2022-12-18T07:20:39;99569.41;;;-4.45;72.69
77079;BME280;66004;55.096;38.760;2022-12-18T07:23:05;99575.34;;;-4.53;72.29
77079;BME280;66004;55.096;38.760;2022-12-18T07:25:39;99583.22;;;-4.40;72.65
77079;BME280;66004;55.096;38.760;2022-12-18T07:28:05;99592.59;;;-4.36;72.14
77079;BME280;66004;55.096;38.760;2022-12-18T07:30:31;99600.75;;;-4.41;71.44
77079;BME280;66004;55.096;38.760;2022-12-18T07:32:56;99569.63;;;-4.68;71.66
77079;BME280;66004;55.096;38.760;2022-12-18T07:35:22;99600.47;;;-4.44;71.95
77079;BME280;66004;55.096;38.760;2022-12-18T07:37:47;99602.44;;;-4.40;71.56
77079;BME280;66004;55.096;38.760;2022-12-18T07:40:13;99615.91;;;-4.38;71.62
77079;BME280;66004;55.096;38.760;2022-12-18T07:42:38;99604.75;;;-4.48;70.88
77079;BME280;66004;55.096;38.760;2022-12-18T07:45:04;99622.72;;;-4.41;71.12
77079;BME280;66004;55.096;38.760;2022-12-18T07:47:30;99627.06;;;-4.45;71.23
77079;BME280;66004;55.096;38.760;2022-12-18T07:49:56;99639.03;;;-4.34;71.29
77079;BME280;66004;55.096;38.760;2022-12-18T07:52:21;99645.34;;;-4.34;71.08
77079;BME280;66004;55.096;38.760;2022-12-18T07:54:47;99631.88;;;-4.52;70.59
77079;BME280;66004;55.096;38.760;2022-12-18T07:57:15;99655.66;;;-4.41;70.42
77079;BME280;66004;55.096;38.760;2022-12-18T07:59:41;99657.84;;;-4.43;70.69
77079;BME280;66004;55.096;38.760;2022-12-18T08:02:07;99656.78;;;-4.42;70.82
77079;BME280;66004;55.096;38.760;2022-12-18T08:04:32;99654.50;;;-4.45;70.58
77079;BME280;66004;55.096;38.760;2022-12-18T08:06:58;99664.53;;;-4.39;70.54
77079;BME280;66004;55.096;38.760;2022-12-18T08:09:23;99660.69;;;-4.38;70.43
77079;BME280;66004;55.096;38.760;2022-12-18T08:11:49;99671.16;;;-4.35;70.08
77079;BME280;66004;55.096;38.760;2022-12-18T08:14:14;99666.84;;;-4.31;69.90
77079;BME280;66004;55.096;38.760;2022-12-18T08:16:40;99659.16;;;-4.28;69.83
77079;BME280;66004;55.096;38.760;2022-12-18T08:19:05;99669.66;;;-4.25;69.56
77079;BME280;66004;55.096;38.760;2022-12-18T08:21:31;99668.31;;;-4.23;69.68
77079;BME280;66004;55.096;38.760;2022-12-18T08:24:01;99676.31;;;-4.21;69.86
77079;BME280;66004;55.096;38.760;2022-12-18T08:26:28;99679.63;;;-4.19;69.81
77079;BME280;66004;55.096;38.760;2022-12-18T08:28:56;99693.94;;;-4.17;69.26
77079;BME280;66004;55.096;38.760;2022-12-18T08:31:22;99674.88;;;-4.24;69.43
77079;BME280;66004;55.096;38.760;2022-12-18T08:33:49;99673.31;;;-4.20;69.37
77079;BME280;66004;55.096;38.760;2022-12-18T08:36:15;99677.81;;;-4.31;69.10
77079;BME280;66004;55.096;38.760;2022-12-18T08:38:41;99695.53;;;-4.21;68.94
77079;BME280;66004;55.096;38.760;2022-12-18T08:41:10;99706.94;;;-4.30;69.17
77079;BME280;66004;55.096;38.760;2022-12-18T08:43:36;99716.34;;;-4.25;68.96
77079;BME280;66004;55.096;38.760;2022-12-18T08:46:22;99728.91;;;-4.30;69.09
77079;BME280;66004;55.096;38.760;2022-12-18T08:48:50;99732.75;;;-4.31;69.20
77079;BME280;66004;55.096;38.760;2022-12-18T08:51:17;99747.88;;;-4.28;69.56
77079;BME280;66004;55.096;38.760;2022-12-18T08:53:43;99761.38;;;-4.26;69.31
77079;BME280;66004;55.096;38.760;2022-12-18T08:56:09;99755.06;;;-4.27;69.23
77079;BME280;66004;55.096;38.760;2022-12-18T08:58:35;99756.38;;;-4.30;68.79
77079;BME280;66004;55.096;38.760;2022-12-18T09:01:05;99765.69;;;-4.31;68.20
77079;BME280;66004;55.096;38.760;2022-12-18T09:03:31;99770.03;;;-4.35;68.94
77079;BME280;66004;55.096;38.760;2022-12-18T09:05:57;99749.38;;;-4.37;68.58
77079;BME280;66004;55.096;38.760;2022-12-18T09:08:23;99768.88;;;-4.39;68.50
77079;BME280;66004;55.096;38.760;2022-12-18T09:10:49;99768.19;;;-4.46;68.68
77079;BME280;66004;55.096;38.760;2022-12-18T09:13:16;99769.34;;;-4.42;68.87
77079;BME280;66004;55.096;38.760;2022-12-18T09:15:47;99767.78;;;-4.38;68.91
77079;BME280;66004;55.096;38.760;2022-12-18T09:18:15;99751.72;;;-4.46;68.63
77079;BME280;66004;55.096;38.760;2022-12-18T09:20:40;99773.25;;;-4.38;68.84
77079;BME280;66004;55.096;38.760;2022-12-18T09:23:06;99793.66;;;-4.34;68.79
77079;BME280;66004;55.096;38.760;2022-12-18T09:25:32;99787.56;;;-4.36;68.94
77079;BME280;66004;55.096;38.760;2022-12-18T09:27:59;99796.34;;;-4.39;68.63
77079;BME280;66004;55.096;38.760;2022-12-18T09:30:25;99791.16;;;-4.35;68.51
77079;BME280;66004;55.096;38.760;2022-12-18T09:32:55;99799.66;;;-4.37;68.92
77079;BME280;66004;55.096;38.760;2022-12-18T09:35:20;99802.47;;;-4.32;68.42
77079;BME280;66004;55.096;38.760;2022-12-18T09:37:46;99795.34;;;-4.33;68.82
77079;BME280;66004;55.096;38.760;2022-12-18T09:40:21;99803.47;;;-4.38;68.42
77079;BME280;66004;55.096;38.760;2022-12-18T09:42:52;99821.53;;;-4.42;68.66
77079;BME280;66004;55.096;38.760;2022-12-18T09:45:19;99826.44;;;-4.44;68.70
77079;BME280;66004;55.096;38.760;2022-12-18T09:47:46;99838.72;;;-4.46;68.33
77079;BME280;66004;55.096;38.760;2022-12-18T09:52:53;99845.06;;;-4.46;68.43
77079;BME280;66004;55.096;38.760;2022-12-18T09:55:35;99839.97;;;-4.54;68.47
77079;BME280;66004;55.096;38.760;2022-12-18T09:58:31;99853.91;;;-4.44;68.67
77079;BME280;66004;55.096;38.760;2022-12-18T10:00:57;99852.22;;;-4.45;68.26
77079;BME280;66004;55.096;38.760;2022-12-18T10:03:23;99849.41;;;-4.50;68.46
77079;BME280;66004;55.096;38.760;2022-12-18T10:08:48;99867.03;;;-4.46;68.21
77079;BME280;66004;55.096;38.760;2022-12-18T10:14:27;99857.19;;;-4.59;68.50
77079;BME280;66004;55.096;38.760;2022-12-18T10:17:07;99873.41;;;-4.57;68.20
77079;BME280;66004;55.096;38.760;2022-12-18T10:25:40;99841.00;;;-4.72;68.54
77079;BME280;66004;55.096;38.760;2022-12-18T10:28:15;99869.81;;;-4.58;68.17
77079;BME280;66004;55.096;38.760;2022-12-18T10:30:42;99873.06;;;-4.61;68.38
77079;BME280;66004;55.096;38.760;2022-12-18T10:33:21;99871.63;;;-4.63;68.41
77079;BME280;66004;55.096;38.760;2022-12-18T10:35:51;99882.75;;;-4.70;68.59
77079;BME280;66004;55.096;38.760;2022-12-18T10:43:27;99903.25;;;-4.61;68.95
77079;BME280;66004;55.096;38.760;2022-12-18T10:48:30;99911.25;;;-4.59;68.77
77079;BME280;66004;55.096;38.760;2022-12-18T10:50:56;99912.91;;;-4.58;68.86
77079;BME280;66004;55.096;38.760;2022-12-18T10:53:24;99917.94;;;-4.55;68.85
77079;BME280;66004;55.096;38.760;2022-12-18T10:55:52;99917.69;;;-4.65;68.56
77079;BME280;66004;55.096;38.760;2022-12-18T10:58:33;99925.47;;;-4.62;68.59
77079;BME280;66004;55.096;38.760;2022-12-18T11:01:12;99937.50;;;-4.63;68.86
77079;BME280;66004;55.096;38.760;2022-12-18T11:03:42;99947.91;;;-4.65;69.10
77079;BME280;66004;55.096;38.760;2022-12-18T11:06:14;99947.31;;;-4.67;68.93
77079;BME280;66004;55.096;38.760;2022-12-18T11:08:45;99958.78;;;-4.71;69.10
77079;BME280;66004;55.096;38.760;2022-12-18T11:11:23;99944.47;;;-4.73;69.31
77079;BME280;66004;55.096;38.760;2022-12-18T11:14:01;99957.47;;;-4.68;69.31
77079;BME280;66004;55.096;38.760;2022-12-18T11:16:28;99939.00;;;-4.73;69.15
77079;BME280;66004;55.096;38.760;2022-12-18T11:21:41;99907.78;;;-4.95;69.55
77079;BME280;66004;55.096;38.760;2022-12-18T11:24:33;99928.47;;;-4.76;69.84
77079;BME280;66004;55.096;38.760;2022-12-18T11:27:04;99939.47;;;-4.76;69.92
77079;BME280;66004;55.096;38.760;2022-12-18T11:29:35;99935.63;;;-4.75;69.97
77079;BME280;66004;55.096;38.760;2022-12-18T11:35:13;99950.91;;;-4.79;70.01
77079;BME280;66004;55.096;38.760;2022-12-18T11:37:37;99959.88;;;-4.83;70.56
77079;BME280;66004;55.096;38.760;2022-12-18T11:40:29;99966.19;;;-4.83;71.04
77079;BME280;66004;55.096;38.760;2022-12-18T11:43:20;99977.06;;;-4.88;71.30
77079;BME280;66004;55.096;38.760;2022-12-18T11:45:53;99987.44;;;-4.90;71.67
77079;BME280;66004;55.096;38.760;2022-12-18T11:48:54;99969.56;;;-5.04;72.34
77079;BME280;66004;55.096;38.760;2022-12-18T11:51:29;99973.00;;;-5.09;72.23
77079;BME280;66004;55.096;38.760;2022-12-18T11:53:57;100006.53;;;-4.95;72.48
77079;BME280;66004;55.096;38.760;2022-12-18T11:56:35;99984.34;;;-5.05;72.71
77079;BME280;66004;55.096;38.760;2022-12-18T12:02:14;100016.31;;;-4.99;73.04
77079;BME280;66004;55.096;38.760;2022-12-18T12:13:32;100031.56;;;-5.03;73.10
77079;BME280;66004;55.096;38.760;2022-12-18T12:21:42;100044.97;;;-4.95;73.27
77079;BME280;66004;55.096;38.760;2022-12-18T12:24:28;100053.78;;;-4.93;73.01
77079;BME280;66004;55.096;38.760;2022-12-18T12:38:00;100059.28;;;-4.93;73.22
77079;BME280;66004;55.096;38.760;2022-12-18T12:40:32;100073.22;;;-4.95;73.33
77079;BME280;66004;55.096;38.760;2022-12-18T12:43:10;100063.53;;;-4.97;73.51
77079;BME280;66004;55.096;38.760;2022-12-18T12:51:14;100090.06;;;-4.91;73.48
77079;BME280;66004;55.096;38.760;2022-12-18T12:53:41;100085.38;;;-4.91;73.82
77079;BME280;66004;55.096;38.760;2022-12-18T12:56:10;100092.91;;;-4.86;73.75
77079;BME280;66004;55.096;38.760;2022-12-18T12:58:47;100096.97;;;-4.89;73.95
77079;BME280;66004;55.096;38.760;2022-12-18T13:06:44;100104.38;;;-4.89;74.49
77079;BME280;66004;55.096;38.760;2022-12-18T13:09:14;100118.91;;;-4.89;74.52
77079;BME280;66004;55.096;38.760;2022-12-18T13:11:42;100118.78;;;-4.94;74.71
77079;BME280;66004;55.096;38.760;2022-12-18T13:14:30;100130.63;;;-4.93;75.03
77079;BME280;66004;55.096;38.760;2022-12-18T13:20:10;100125.22;;;-5.00;75.10
77079;BME280;66004;55.096;38.760;2022-12-18T13:22:38;100139.91;;;-4.94;75.17
77079;BME280;66004;55.096;38.760;2022-12-18T13:36:00;100161.41;;;-4.91;75.48
77079;BME280;66004;55.096;38.760;2022-12-18T13:38:37;100163.53;;;-4.93;75.10
77079;BME280;66004;55.096;38.760;2022-12-18T13:43:52;100173.78;;;-5.00;75.91
77079;BME280;66004;55.096;38.760;2022-12-18T13:49:00;100170.91;;;-5.05;75.96
77079;BME280;66004;55.096;38.760;2022-12-18T13:51:28;100158.34;;;-5.13;76.22
77079;BME280;66004;55.096;38.760;2022-12-18T13:54:00;100186.03;;;-5.03;76.38
77079;BME280;66004;55.096;38.760;2022-12-18T13:56:32;100192.38;;;-5.02;76.09
77079;BME280;66004;55.096;38.760;2022-12-18T13:59:19;100213.38;;;-4.96;76.02
77079;BME280;66004;55.096;38.760;2022-12-18T14:01:46;100218.88;;;-4.96;76.02
77079;BME280;66004;55.096;38.760;2022-12-18T14:04:22;100214.94;;;-5.00;76.04
77079;BME280;66004;55.096;38.760;2022-12-18T14:06:52;100204.28;;;-5.09;76.11
77079;BME280;66004;55.096;38.760;2022-12-18T14:09:25;100219.94;;;-4.97;76.48
77079;BME280;66004;55.096;38.760;2022-12-18T14:11:52;100205.22;;;-5.15;76.09
77079;BME280;66004;55.096;38.760;2022-12-18T14:14:41;100226.13;;;-5.02;76.54
77079;BME280;66004;55.096;38.760;2022-12-18T14:17:11;100242.50;;;-4.95;76.39
77079;BME280;66004;55.096;38.760;2022-12-18T14:19:40;100239.63;;;-5.00;76.54
77079;BME280;66004;55.096;38.760;2022-12-18T14:22:16;100251.81;;;-4.96;76.52
77079;BME280;66004;55.096;38.760;2022-12-18T14:24:42;100258.34;;;-4.97;76.75
77079;BME280;66004;55.096;38.760;2022-12-18T14:27:22;100258.97;;;-4.95;76.69
77079;BME280;66004;55.096;38.760;2022-12-18T14:29:47;100262.56;;;-4.95;76.71
77079;BME280;66004;55.096;38.760;2022-12-18T14:32:18;100268.72;;;-4.99;76.76
77079;BME280;66004;55.096;38.760;2022-12-18T14:34:54;100278.03;;;-5.00;76.86
77079;BME280;66004;55.096;38.760;2022-12-18T14:37:23;100275.91;;;-4.98;77.22
77079;BME280;66004;55.096;38.760;2022-12-18T14:39:54;100271.34;;;-5.04;77.30
77079;BME280;66004;55.096;38.760;2022-12-18T14:42:20;100279.69;;;-4.99;77.21
77079;BME280;66004;55.096;38.760;2022-12-18T14:44:45;100288.06;;;-4.94;77.47
77079;BME280;66004;55.096;38.760;2022-12-18T14:47:15;100288.91;;;-4.94;77.37
77079;BME280;66004;55.096;38.760;2022-12-18T14:49:42;100301.19;;;-4.96;77.26